www.cux-wetter.de
Wetterdaten: Montag, 27.12.2010
Datum Zeit Temp. A. Feuchte A. Luftdruck Regen Wind Richtung Richtung Sonnenschein Solar Taupunkt Windchill Windben
27.12.2010 00:00 -3,7 C 85 % 1019,5 hPa 0,0 l/m 0,0 km/h (0 Bft) N 355 0 min 0 W/m -5,8 C -3,7 C 0,0 km/h (0 Bft)
27.12.2010 00:04 -3,9 C 84 % 1019,5 hPa 0,0 l/m 0,0 km/h (0 Bft) N 355 0 min 0 W/m -6,2 C -3,9 C 0,0 km/h (0 Bft)
27.12.2010 00:09 -3,9 C 84 % 1019,5 hPa 0,0 l/m 0,0 km/h (0 Bft) N 355 0 min 0 W/m -6,2 C -3,9 C 0,0 km/h (0 Bft)
27.12.2010 00:14 -4,2 C 84 % 1019,5 hPa 0,0 l/m 0,0 km/h (0 Bft) N 355 0 min 0 W/m -6,5 C -4,2 C 0,0 km/h (0 Bft)
27.12.2010 00:19 -4,2 C 85 % 1019,5 hPa 0,0 l/m 0,0 km/h (0 Bft) N 355 0 min 0 W/m -6,3 C -4,2 C 0,0 km/h (0 Bft)
27.12.2010 00:25 -4,2 C 85 % 1019,5 hPa 0,0 l/m 0,0 km/h (0 Bft) N 355 0 min 0 W/m -6,3 C -4,2 C 0,0 km/h (0 Bft)
27.12.2010 00:30 -4,2 C 85 % 1018,5 hPa 0,0 l/m 0,0 km/h (0 Bft) N 355 0 min 0 W/m -6,3 C -4,2 C 0,0 km/h (0 Bft)
27.12.2010 00:35 -4,1 C 85 % 1018,5 hPa 0,0 l/m 0,0 km/h (0 Bft) N 355 0 min 0 W/m -6,2 C -4,1 C 0,0 km/h (0 Bft)
27.12.2010 00:39 -4,0 C 85 % 1018,5 hPa 0,0 l/m 0,0 km/h (0 Bft) N 355 0 min 0 W/m -6,1 C -4,0 C 0,0 km/h (0 Bft)
27.12.2010 00:44 -4,0 C 85 % 1018,5 hPa 0,0 l/m 0,0 km/h (0 Bft) N 355 0 min 0 W/m -6,1 C -4,0 C 0,0 km/h (0 Bft)
27.12.2010 00:49 -3,8 C 86 % 1018,5 hPa 0,0 l/m 0,0 km/h (0 Bft) N 355 0 min 0 W/m -5,8 C -3,8 C 0,0 km/h (0 Bft)
27.12.2010 00:54 -3,7 C 86 % 1018,5 hPa 0,0 l/m 0,0 km/h (0 Bft) N 355 0 min 0 W/m -5,7 C -3,7 C 0,0 km/h (0 Bft)
27.12.2010 00:59 -3,7 C 86 % 1018,5 hPa 0,0 l/m 0,0 km/h (0 Bft) N 355 0 min 0 W/m -5,7 C -3,7 C 0,0 km/h (0 Bft)
27.12.2010 01:05 -3,7 C 86 % 1018,5 hPa 0,0 l/m 0,0 km/h (0 Bft) N 355 0 min 0 W/m -5,7 C -3,7 C 0,0 km/h (0 Bft)
27.12.2010 01:10 -3,7 C 86 % 1018,5 hPa 0,0 l/m 0,0 km/h (0 Bft) N 355 0 min 0 W/m -5,7 C -3,7 C 0,0 km/h (0 Bft)
27.12.2010 01:14 -3,7 C 86 % 1018,5 hPa 0,0 l/m 0,0 km/h (0 Bft) N 355 0 min 0 W/m -5,7 C -3,7 C 0,0 km/h (0 Bft)
27.12.2010 01:19 -3,6 C 86 % 1018,5 hPa 0,0 l/m 0,0 km/h (0 Bft) N 355 0 min 0 W/m -5,6 C -3,6 C 0,0 km/h (0 Bft)
27.12.2010 01:24 -3,6 C 86 % 1018,5 hPa 0,0 l/m 0,0 km/h (0 Bft) N 355 0 min 0 W/m -5,6 C -3,6 C 0,0 km/h (0 Bft)
27.12.2010 01:29 -3,7 C 86 % 1018,5 hPa 0,0 l/m 0,0 km/h (0 Bft) N 355 0 min 0 W/m -5,7 C -3,7 C 0,0 km/h (0 Bft)
27.12.2010 01:34 -3,7 C 86 % 1018,5 hPa 0,0 l/m 0,0 km/h (0 Bft) N 355 0 min 0 W/m -5,7 C -3,7 C 0,0 km/h (0 Bft)
27.12.2010 01:39 -3,6 C 86 % 1018,5 hPa 0,0 l/m 0,0 km/h (0 Bft) N 355 0 min 0 W/m -5,6 C -3,6 C 0,0 km/h (0 Bft)
27.12.2010 01:44 -3,4 C 86 % 1018,5 hPa 0,0 l/m 0,0 km/h (0 Bft) N 355 0 min 0 W/m -5,4 C -3,4 C 0,0 km/h (0 Bft)
27.12.2010 01:50 -3,4 C 86 % 1018,5 hPa 0,0 l/m 0,0 km/h (0 Bft) N 355 0 min 0 W/m -5,4 C -3,4 C 0,0 km/h (0 Bft)
27.12.2010 01:55 -3,4 C 86 % 1018,5 hPa 0,0 l/m 0,0 km/h (0 Bft) N 355 0 min 0 W/m -5,4 C -3,4 C 0,0 km/h (0 Bft)
27.12.2010 02:00 -3,4 C 86 % 1018,5 hPa 0,0 l/m 0,0 km/h (0 Bft) N 355 0 min 0 W/m -5,4 C -3,4 C 0,0 km/h (0 Bft)
27.12.2010 02:04 -3,4 C 86 % 1018,5 hPa 0,0 l/m 0,0 km/h (0 Bft) N 355 0 min 0 W/m -5,4 C -3,4 C 0,0 km/h (0 Bft)
27.12.2010 02:09 -3,4 C 86 % 1018,5 hPa 0,0 l/m 0,0 km/h (0 Bft) N 355 0 min 0 W/m -5,4 C -3,4 C 0,0 km/h (0 Bft)
27.12.2010 02:14 -3,2 C 87 % 1018,5 hPa 0,0 l/m 0,0 km/h (0 Bft) N 355 0 min 0 W/m -5,0 C -3,2 C 0,0 km/h (0 Bft)
27.12.2010 02:20 -3,1 C 87 % 1018,5 hPa 0,0 l/m 0,0 km/h (0 Bft) N 355 0 min 0 W/m -4,9 C -3,1 C 0,0 km/h (0 Bft)
27.12.2010 02:25 -3,1 C 86 % 1018,5 hPa 0,0 l/m 0,0 km/h (0 Bft) N 355 0 min 0 W/m -5,1 C -3,1 C 0,0 km/h (0 Bft)
27.12.2010 02:30 -3,1 C 86 % 1018,5 hPa 0,0 l/m 0,0 km/h (0 Bft) N 355 0 min 0 W/m -5,1 C -3,1 C 0,0 km/h (0 Bft)
27.12.2010 02:34 -3,0 C 86 % 1018,5 hPa 0,0 l/m 11,6 km/h (2 Bft) N 355 0 min 0 W/m -5,0 C -8,1 C 11,6 km/h (2 Bft)
27.12.2010 02:39 -3,0 C 86 % 1018,5 hPa 0,0 l/m 6,3 km/h (2 Bft) N 355 0 min 0 W/m -5,0 C -3,0 C 6,3 km/h (2 Bft)
27.12.2010 02:44 -3,0 C 87 % 1018,5 hPa 0,0 l/m 6,3 km/h (2 Bft) NW 305 0 min 0 W/m -4,9 C -3,0 C 6,3 km/h (2 Bft)
27.12.2010 02:49 -2,9 C 87 % 1018,5 hPa 0,0 l/m 7,1 km/h (2 Bft) W-SW 245 0 min 0 W/m -4,8 C -3,7 C 7,1 km/h (2 Bft)
27.12.2010 02:54 -2,8 C 87 % 1018,5 hPa 0,0 l/m 5,6 km/h (2 Bft) W-SW 240 0 min 0 W/m -4,7 C -2,8 C 5,6 km/h (2 Bft)
27.12.2010 02:59 -2,7 C 87 % 1018,5 hPa 0,0 l/m 5,8 km/h (2 Bft) W-SW 240 0 min 0 W/m -4,6 C -2,7 C 5,8 km/h (2 Bft)
27.12.2010 03:04 -2,6 C 87 % 1018,5 hPa 0,0 l/m 5,1 km/h (1 Bft) W-SW 240 0 min 0 W/m -4,5 C -2,6 C 5,1 km/h (1 Bft)
27.12.2010 03:09 -2,6 C 87 % 1018,5 hPa 0,0 l/m 5,3 km/h (1 Bft) W-SW 240 0 min 0 W/m -4,5 C -2,6 C 5,3 km/h (1 Bft)
27.12.2010 03:14 -2,5 C 87 % 1018,5 hPa 0,0 l/m 6,3 km/h (2 Bft) W-SW 240 0 min 0 W/m -4,4 C -2,5 C 6,3 km/h (2 Bft)
27.12.2010 03:19 -2,4 C 87 % 1018,5 hPa 0,0 l/m 10,1 km/h (2 Bft) W-SW 240 0 min 0 W/m -4,3 C -6,2 C 10,1 km/h (2 Bft)
27.12.2010 03:24 -2,2 C 88 % 1018,5 hPa 0,0 l/m 7,9 km/h (2 Bft) W-SW 240 0 min 0 W/m -3,9 C -3,9 C 7,9 km/h (2 Bft)
27.12.2010 03:29 -2,2 C 88 % 1018,5 hPa 0,0 l/m 7,2 km/h (2 Bft) W-SW 240 0 min 0 W/m -3,9 C -3,1 C 7,2 km/h (2 Bft)
27.12.2010 03:34 -2,1 C 88 % 1018,5 hPa 0,0 l/m 7,2 km/h (2 Bft) W-SW 240 0 min 0 W/m -3,8 C -3,0 C 7,2 km/h (2 Bft)
27.12.2010 03:40 -2,0 C 88 % 1018,5 hPa 0,0 l/m 5,9 km/h (2 Bft) W-SW 240 0 min 0 W/m -3,7 C -2,0 C 5,9 km/h (2 Bft)
27.12.2010 03:45 -2,0 C 88 % 1018,5 hPa 0,0 l/m 6,7 km/h (2 Bft) W-SW 240 0 min 0 W/m -3,7 C -2,3 C 6,7 km/h (2 Bft)
27.12.2010 03:49 -1,9 C 88 % 1018,5 hPa 0,0 l/m 5,8 km/h (2 Bft) W-SW 240 0 min 0 W/m -3,6 C -1,9 C 5,8 km/h (2 Bft)
27.12.2010 03:54 -1,8 C 88 % 1018,5 hPa 0,0 l/m 7,2 km/h (2 Bft) W-SW 240 0 min 0 W/m -3,5 C -2,7 C 7,2 km/h (2 Bft)
27.12.2010 03:59 -1,8 C 88 % 1018,5 hPa 0,0 l/m 7,0 km/h (2 Bft) W-SW 240 0 min 0 W/m -3,5 C -2,5 C 7,0 km/h (2 Bft)
27.12.2010 04:05 -1,8 C 88 % 1018,5 hPa 0,0 l/m 4,8 km/h (1 Bft) W-SW 240 0 min 0 W/m -3,5 C -1,8 C 4,8 km/h (1 Bft)
27.12.2010 04:10 -1,8 C 88 % 1018,5 hPa 0,0 l/m 0,1 km/h (0 Bft) W-SW 240 0 min 0 W/m -3,5 C -1,8 C 0,1 km/h (0 Bft)
27.12.2010 04:15 -1,8 C 88 % 1018,5 hPa 0,0 l/m 0,0 km/h (0 Bft) W-SW 240 0 min 0 W/m -3,5 C -1,8 C 0,0 km/h (0 Bft)
27.12.2010 04:19 -1,9 C 88 % 1018,5 hPa 0,0 l/m 0,6 km/h (0 Bft) W-SW 240 0 min 0 W/m -3,6 C -1,9 C 0,6 km/h (0 Bft)
27.12.2010 04:24 -2,0 C 88 % 1018,5 hPa 0,0 l/m 8,3 km/h (2 Bft) W-SW 240 0 min 0 W/m -3,7 C -4,1 C 8,3 km/h (2 Bft)
27.12.2010 04:29 -2,1 C 88 % 1018,5 hPa 0,0 l/m 9,0 km/h (2 Bft) W-SW 240 0 min 0 W/m -3,8 C -4,8 C 9,0 km/h (2 Bft)
27.12.2010 04:34 -2,1 C 88 % 1018,5 hPa 0,0 l/m 8,4 km/h (2 Bft) W-SW 240 0 min 0 W/m -3,8 C -4,3 C 8,4 km/h (2 Bft)
27.12.2010 04:39 -2,1 C 88 % 1018,5 hPa 0,0 l/m 6,1 km/h (2 Bft) W-SW 240 0 min 0 W/m -3,8 C -2,1 C 6,1 km/h (2 Bft)
27.12.2010 04:44 -2,2 C 88 % 1018,5 hPa 0,0 l/m 5,6 km/h (2 Bft) W-SW 240 0 min 0 W/m -3,9 C -2,2 C 5,6 km/h (2 Bft)
27.12.2010 04:50 -2,2 C 88 % 1017,5 hPa 0,0 l/m 4,9 km/h (1 Bft) W-SW 240 0 min 0 W/m -3,9 C -2,2 C 4,9 km/h (1 Bft)
27.12.2010 04:55 -2,3 C 87 % 1018,5 hPa 0,0 l/m 4,2 km/h (1 Bft) W-SW 240 0 min 0 W/m -4,2 C -2,3 C 4,2 km/h (1 Bft)
27.12.2010 05:00 -2,3 C 87 % 1018,5 hPa 0,0 l/m 8,4 km/h (2 Bft) W-SW 240 0 min 0 W/m -4,2 C -4,5 C 8,4 km/h (2 Bft)
27.12.2010 05:04 -2,2 C 88 % 1017,5 hPa 0,0 l/m 8,7 km/h (2 Bft) W-SW 240 0 min 0 W/m -3,9 C -4,7 C 8,7 km/h (2 Bft)
27.12.2010 05:09 -2,2 C 88 % 1018,5 hPa 0,0 l/m 5,4 km/h (2 Bft) W-SW 240 0 min 0 W/m -3,9 C -2,2 C 5,4 km/h (2 Bft)
27.12.2010 05:15 -2,2 C 88 % 1018,5 hPa 0,0 l/m 5,4 km/h (2 Bft) W-SW 240 0 min 0 W/m -3,9 C -2,2 C 5,4 km/h (2 Bft)
27.12.2010 05:20 -2,2 C 88 % 1017,5 hPa 0,0 l/m 7,8 km/h (2 Bft) W-SW 240 0 min 0 W/m -3,9 C -3,7 C 7,8 km/h (2 Bft)
27.12.2010 05:25 -2,2 C 88 % 1017,5 hPa 0,0 l/m 8,2 km/h (2 Bft) W-SW 240 0 min 0 W/m -3,9 C -4,2 C 8,2 km/h (2 Bft)
27.12.2010 05:29 -2,2 C 88 % 1017,5 hPa 0,0 l/m 6,2 km/h (2 Bft) W-SW 240 0 min 0 W/m -3,9 C -2,2 C 6,2 km/h (2 Bft)
27.12.2010 05:34 -2,2 C 88 % 1017,5 hPa 0,0 l/m 7,9 km/h (2 Bft) W-SW 240 0 min 0 W/m -3,9 C -3,9 C 7,9 km/h (2 Bft)
27.12.2010 05:39 -2,2 C 88 % 1017,5 hPa 0,0 l/m 7,2 km/h (2 Bft) W-SW 240 0 min 0 W/m -3,9 C -3,1 C 7,2 km/h (2 Bft)
27.12.2010 05:44 -2,2 C 88 % 1017,5 hPa 0,0 l/m 5,8 km/h (2 Bft) W-SW 240 0 min 0 W/m -3,9 C -2,2 C 5,8 km/h (2 Bft)
27.12.2010 05:49 -2,2 C 88 % 1017,5 hPa 0,0 l/m 7,6 km/h (2 Bft) W-SW 240 0 min 0 W/m -3,9 C -3,5 C 7,6 km/h (2 Bft)
27.12.2010 05:54 -2,1 C 88 % 1017,5 hPa 0,0 l/m 9,1 km/h (2 Bft) W-SW 250 0 min 0 W/m -3,8 C -4,9 C 9,1 km/h (2 Bft)
27.12.2010 06:00 -2,0 C 88 % 1017,5 hPa 0,0 l/m 9,0 km/h (2 Bft) W-SW 255 0 min 0 W/m -3,7 C -4,7 C 9,0 km/h (2 Bft)
27.12.2010 06:04 -2,0 C 88 % 1017,5 hPa 0,0 l/m 9,0 km/h (2 Bft) W-SW 250 0 min 0 W/m -3,7 C -4,7 C 9,0 km/h (2 Bft)
27.12.2010 06:09 -2,0 C 88 % 1017,5 hPa 0,0 l/m 9,0 km/h (2 Bft) W-SW 250 0 min 0 W/m -3,7 C -4,7 C 9,0 km/h (2 Bft)
27.12.2010 06:14 -1,9 C 88 % 1017,5 hPa 0,0 l/m 9,0 km/h (2 Bft) W-SW 250 0 min 0 W/m -3,6 C -4,6 C 9,0 km/h (2 Bft)
27.12.2010 06:19 -1,9 C 88 % 1017,5 hPa 0,0 l/m 8,7 km/h (2 Bft) W-SW 250 0 min 0 W/m -3,6 C -4,3 C 8,7 km/h (2 Bft)
27.12.2010 06:24 -1,8 C 88 % 1017,5 hPa 0,0 l/m 9,2 km/h (2 Bft) W-SW 240 0 min 0 W/m -3,5 C -4,7 C 9,2 km/h (2 Bft)
27.12.2010 06:30 -1,8 C 88 % 1017,5 hPa 0,0 l/m 4,3 km/h (1 Bft) W-SW 240 0 min 0 W/m -3,5 C -1,8 C 4,3 km/h (1 Bft)
27.12.2010 06:35 -1,9 C 88 % 1017,5 hPa 0,0 l/m 0,0 km/h (0 Bft) W-SW 240 0 min 0 W/m -3,6 C -1,9 C 0,0 km/h (0 Bft)
27.12.2010 06:40 -2,0 C 88 % 1017,5 hPa 0,0 l/m 0,0 km/h (0 Bft) W-SW 240 0 min 0 W/m -3,7 C -2,0 C 0,0 km/h (0 Bft)
27.12.2010 06:44 -2,0 C 88 % 1017,5 hPa 0,0 l/m 0,0 km/h (0 Bft) W-SW 240 0 min 0 W/m -3,7 C -2,0 C 0,0 km/h (0 Bft)
27.12.2010 06:49 -2,1 C 88 % 1017,5 hPa 0,0 l/m 0,0 km/h (0 Bft) W-SW 240 0 min 0 W/m -3,8 C -2,1 C 0,0 km/h (0 Bft)
27.12.2010 06:54 -2,2 C 88 % 1017,5 hPa 0,0 l/m 0,0 km/h (0 Bft) W-SW 240 0 min 0 W/m -3,9 C -2,2 C 0,0 km/h (0 Bft)
27.12.2010 06:59 -2,2 C 88 % 1017,5 hPa 0,0 l/m 0,0 km/h (0 Bft) W-SW 240 0 min 0 W/m -3,9 C -2,2 C 0,0 km/h (0 Bft)
27.12.2010 07:05 -2,2 C 88 % 1017,5 hPa 0,0 l/m 0,0 km/h (0 Bft) W-SW 240 0 min 0 W/m -3,9 C -2,2 C 0,0 km/h (0 Bft)
27.12.2010 07:09 -2,2 C 88 % 1017,5 hPa 0,0 l/m 6,0 km/h (2 Bft) W-SW 240 0 min 0 W/m -3,9 C -2,2 C 6,0 km/h (2 Bft)
27.12.2010 07:14 -2,2 C 88 % 1017,5 hPa 0,0 l/m 7,9 km/h (2 Bft) SW 235 0 min 0 W/m -3,9 C -3,9 C 7,9 km/h (2 Bft)
27.12.2010 07:19 -2,2 C 88 % 1017,5 hPa 0,0 l/m 8,1 km/h (2 Bft) W-SW 240 0 min 0 W/m -3,9 C -4,1 C 8,1 km/h (2 Bft)
27.12.2010 07:24 -2,2 C 88 % 1017,5 hPa 0,0 l/m 7,7 km/h (2 Bft) W-SW 245 0 min 0 W/m -3,9 C -3,6 C 7,7 km/h (2 Bft)
27.12.2010 07:29 -2,2 C 88 % 1017,5 hPa 0,0 l/m 6,7 km/h (2 Bft) W-SW 245 0 min 0 W/m -3,9 C -2,5 C 6,7 km/h (2 Bft)
27.12.2010 07:34 -2,2 C 88 % 1017,5 hPa 0,0 l/m 6,7 km/h (2 Bft) W-SW 245 0 min 0 W/m -3,9 C -2,5 C 6,7 km/h (2 Bft)
27.12.2010 07:40 -2,2 C 88 % 1017,5 hPa 0,0 l/m 9,0 km/h (2 Bft) W-SW 245 0 min 0 W/m -3,9 C -5,0 C 9,0 km/h (2 Bft)
27.12.2010 07:45 -2,2 C 88 % 1017,5 hPa 0,0 l/m 8,2 km/h (2 Bft) W-SW 240 0 min 0 W/m -3,9 C -4,2 C 8,2 km/h (2 Bft)
27.12.2010 07:50 -2,1 C 89 % 1017,5 hPa 0,0 l/m 7,4 km/h (2 Bft) W-SW 240 0 min 0 W/m -3,7 C -3,2 C 7,4 km/h (2 Bft)
27.12.2010 07:54 -2,0 C 89 % 1017,5 hPa 0,0 l/m 7,0 km/h (2 Bft) W-SW 240 0 min 0 W/m -3,6 C -2,7 C 7,0 km/h (2 Bft)
27.12.2010 07:59 -2,0 C 89 % 1017,5 hPa 0,0 l/m 4,0 km/h (1 Bft) W-SW 240 0 min 0 W/m -3,6 C -2,0 C 4,0 km/h (1 Bft)
27.12.2010 08:05 -1,8 C 89 % 1017,5 hPa 0,0 l/m 4,5 km/h (1 Bft) W-SW 240 0 min 0 W/m -3,4 C -1,8 C 4,5 km/h (1 Bft)
27.12.2010 08:10 -1,7 C 89 % 1017,5 hPa 0,0 l/m 5,4 km/h (2 Bft) W-SW 240 0 min 0 W/m -3,3 C -1,7 C 5,4 km/h (2 Bft)
27.12.2010 08:15 -1,7 C 88 % 1017,5 hPa 0,0 l/m 4,9 km/h (1 Bft) W-SW 240 0 min 0 W/m -3,4 C -1,7 C 4,9 km/h (1 Bft)
27.12.2010 08:19 -1,9 C 88 % 1017,5 hPa 0,0 l/m 6,5 km/h (2 Bft) W-SW 240 0 min 0 W/m -3,6 C -2,0 C 6,5 km/h (2 Bft)
27.12.2010 08:24 -2,0 C 88 % 1017,5 hPa 0,0 l/m 5,9 km/h (2 Bft) W-SW 240 0 min 0 W/m -3,7 C -2,0 C 5,9 km/h (2 Bft)
27.12.2010 08:29 -2,0 C 88 % 1017,5 hPa 0,0 l/m 5,7 km/h (2 Bft) W-SW 240 0 min 0 W/m -3,7 C -2,0 C 5,7 km/h (2 Bft)
27.12.2010 08:34 -2,2 C 88 % 1017,5 hPa 0,0 l/m 5,2 km/h (1 Bft) W-SW 240 0 min 0 W/m -3,9 C -2,2 C 5,2 km/h (1 Bft)
27.12.2010 08:39 -2,2 C 88 % 1017,5 hPa 0,0 l/m 6,7 km/h (2 Bft) W-SW 240 0 min 0 W/m -3,9 C -2,5 C 6,7 km/h (2 Bft)
27.12.2010 08:44 -2,2 C 88 % 1017,5 hPa 0,0 l/m 10,4 km/h (2 Bft) W-SW 240 0 min 0 W/m -3,9 C -6,2 C 10,4 km/h (2 Bft)
27.12.2010 08:50 -2,2 C 88 % 1017,5 hPa 0,0 l/m 8,9 km/h (2 Bft) W-SW 240 0 min 0 W/m -3,9 C -4,9 C 8,9 km/h (2 Bft)
27.12.2010 08:55 -2,2 C 88 % 1017,5 hPa 0,0 l/m 10,0 km/h (2 Bft) W-SW 250 0 min 0 W/m -3,9 C -5,9 C 10,0 km/h (2 Bft)
27.12.2010 09:00 -2,2 C 88 % 1017,5 hPa 0,0 l/m 9,3 km/h (2 Bft) W-SW 250 0 min 0 W/m -3,9 C -5,2 C 9,3 km/h (2 Bft)
27.12.2010 09:04 -2,1 C 89 % 1017,5 hPa 0,0 l/m 12,0 km/h (2 Bft) W-SW 250 0 min 0 W/m -3,7 C -7,4 C 12,0 km/h (2 Bft)
27.12.2010 09:09 -2,1 C 89 % 1017,5 hPa 0,0 l/m 11,6 km/h (2 Bft) W-SW 250 0 min 0 W/m -3,7 C -7,1 C 11,6 km/h (2 Bft)
27.12.2010 09:15 -2,0 C 89 % 1017,5 hPa 0,0 l/m 11,9 km/h (2 Bft) W-SW 245 0 min 0 W/m -3,6 C -7,2 C 11,9 km/h (2 Bft)
27.12.2010 09:20 -2,0 C 89 % 1017,5 hPa 0,0 l/m 10,4 km/h (2 Bft) SW 235 0 min 0 W/m -3,6 C -6,0 C 10,4 km/h (2 Bft)
27.12.2010 09:25 -2,0 C 90 % 1017,5 hPa 0,0 l/m 8,7 km/h (2 Bft) W-SW 240 0 min 0 W/m -3,4 C -4,5 C 8,7 km/h (2 Bft)
27.12.2010 09:29 -1,8 C 90 % 1017,5 hPa 0,0 l/m 8,4 km/h (2 Bft) W-SW 250 0 min 0 W/m -3,2 C -3,9 C 8,4 km/h (2 Bft)
27.12.2010 09:34 -1,9 C 89 % 1017,5 hPa 0,0 l/m 9,2 km/h (2 Bft) W-SW 240 0 min 0 W/m -3,5 C -4,8 C 9,2 km/h (2 Bft)
27.12.2010 09:39 -1,9 C 89 % 1017,5 hPa 0,0 l/m 10,6 km/h (2 Bft) W-SW 245 0 min 0 W/m -3,5 C -6,1 C 10,6 km/h (2 Bft)
27.12.2010 09:44 -1,8 C 89 % 1017,5 hPa 0,0 l/m 8,7 km/h (2 Bft) W-SW 240 0 min 0 W/m -3,4 C -4,2 C 8,7 km/h (2 Bft)
27.12.2010 09:49 -1,8 C 89 % 1017,5 hPa 0,0 l/m 9,1 km/h (2 Bft) SW 235 0 min 0 W/m -3,4 C -4,6 C 9,1 km/h (2 Bft)
27.12.2010 09:55 -1,8 C 90 % 1017,5 hPa 0,0 l/m 9,7 km/h (2 Bft) W-SW 240 0 min 0 W/m -3,2 C -5,2 C 9,7 km/h (2 Bft)
27.12.2010 10:00 -1,8 C 90 % 1017,5 hPa 0,0 l/m 12,3 km/h (2 Bft) W-SW 245 0 min 0 W/m -3,2 C -7,3 C 12,3 km/h (2 Bft)
27.12.2010 10:04 -1,7 C 90 % 1017,5 hPa 0,0 l/m 11,4 km/h (2 Bft) W-SW 250 0 min 0 W/m -3,1 C -6,5 C 11,4 km/h (2 Bft)
27.12.2010 10:09 -1,6 C 90 % 1017,5 hPa 0,0 l/m 11,8 km/h (2 Bft) W-SW 240 0 min 0 W/m -3,0 C -6,7 C 11,8 km/h (2 Bft)
27.12.2010 10:14 -1,6 C 90 % 1017,5 hPa 0,0 l/m 8,3 km/h (2 Bft) W-SW 240 0 min 0 W/m -3,0 C -3,6 C 8,3 km/h (2 Bft)
27.12.2010 10:20 -1,6 C 90 % 1017,5 hPa 0,0 l/m 12,3 km/h (2 Bft) W-SW 245 0 min 0 W/m -3,0 C -7,1 C 12,3 km/h (2 Bft)
27.12.2010 10:25 -1,6 C 91 % 1017,5 hPa 0,0 l/m 10,1 km/h (2 Bft) W-SW 245 0 min 0 W/m -2,9 C -5,3 C 10,1 km/h (2 Bft)
27.12.2010 10:29 -1,5 C 91 % 1017,5 hPa 0,0 l/m 10,8 km/h (2 Bft) W-SW 250 0 min 0 W/m -2,8 C -5,8 C 10,8 km/h (2 Bft)
27.12.2010 10:34 -1,5 C 91 % 1017,5 hPa 0,0 l/m 10,4 km/h (2 Bft) W-SW 250 0 min 0 W/m -2,8 C -5,5 C 10,4 km/h (2 Bft)
27.12.2010 10:39 -1,4 C 91 % 1017,5 hPa 0,0 l/m 10,6 km/h (2 Bft) W-SW 250 0 min 0 W/m -2,7 C -5,5 C 10,6 km/h (2 Bft)
27.12.2010 10:44 -1,2 C 91 % 1017,5 hPa 0,0 l/m 9,0 km/h (2 Bft) W-SW 245 0 min 0 W/m -2,5 C -3,9 C 9,0 km/h (2 Bft)
27.12.2010 10:49 -1,1 C 91 % 1017,5 hPa 0,0 l/m 8,1 km/h (2 Bft) W-SW 245 0 min 0 W/m -2,4 C -2,9 C 8,1 km/h (2 Bft)
27.12.2010 10:55 -1,0 C 91 % 1017,5 hPa 0,0 l/m 7,2 km/h (2 Bft) W-SW 245 0 min 0 W/m -2,3 C -1,9 C 7,2 km/h (2 Bft)
27.12.2010 11:00 -0,8 C 91 % 1017,5 hPa 0,0 l/m 9,0 km/h (2 Bft) W-SW 245 0 min 0 W/m -2,1 C -3,4 C 9,0 km/h (2 Bft)
27.12.2010 11:04 -0,7 C 91 % 1017,5 hPa 0,0 l/m 9,0 km/h (2 Bft) W-SW 245 0 min 0 W/m -2,0 C -3,3 C 9,0 km/h (2 Bft)
27.12.2010 11:09 -0,5 C 91 % 1017,5 hPa 0,0 l/m 12,4 km/h (2 Bft) W-SW 255 0 min 0 W/m -1,8 C -5,9 C 12,4 km/h (2 Bft)
27.12.2010 11:14 -0,3 C 92 % 1017,5 hPa 0,0 l/m 13,5 km/h (3 Bft) W 260 0 min 0 W/m -1,4 C -6,4 C 13,5 km/h (3 Bft)
27.12.2010 11:20 0,1 C 91 % 1017,5 hPa 0,0 l/m 11,4 km/h (2 Bft) W-SW 255 0 min 0 W/m -1,2 C -4,4 C 11,4 km/h (2 Bft)
27.12.2010 11:25 0,1 C 91 % 1017,5 hPa 0,0 l/m 13,1 km/h (3 Bft) W-SW 255 0 min 0 W/m -1,2 C -5,7 C 13,1 km/h (3 Bft)
27.12.2010 11:29 0,1 C 91 % 1017,5 hPa 0,0 l/m 12,9 km/h (3 Bft) W 260 0 min 0 W/m -1,2 C -5,5 C 12,9 km/h (3 Bft)
27.12.2010 11:34 0,2 C 91 % 1017,5 hPa 0,0 l/m 10,7 km/h (2 Bft) W-SW 255 0 min 0 W/m -1,1 C -3,8 C 10,7 km/h (2 Bft)
27.12.2010 11:39 0,2 C 91 % 1017,5 hPa 0,0 l/m 12,7 km/h (3 Bft) W-SW 250 0 min 0 W/m -1,1 C -5,3 C 12,7 km/h (3 Bft)
27.12.2010 11:44 0,3 C 91 % 1017,5 hPa 0,0 l/m 13,2 km/h (3 Bft) W-SW 255 0 min 0 W/m -1,0 C -5,5 C 13,2 km/h (3 Bft)
27.12.2010 11:49 0,3 C 91 % 1017,5 hPa 0,0 l/m 12,5 km/h (2 Bft) W-SW 255 0 min 0 W/m -1,0 C -5,0 C 12,5 km/h (2 Bft)
27.12.2010 11:55 0,3 C 91 % 1017,5 hPa 0,0 l/m 12,5 km/h (2 Bft) W 260 0 min 0 W/m -1,0 C -5,0 C 12,5 km/h (2 Bft)
27.12.2010 12:00 0,3 C 91 % 1017,5 hPa 0,0 l/m 12,8 km/h (3 Bft) W-SW 250 0 min 0 W/m -1,0 C -5,2 C 12,8 km/h (3 Bft)
27.12.2010 12:04 0,4 C 91 % 1017,5 hPa 0,0 l/m 12,9 km/h (3 Bft) W-SW 250 0 min 0 W/m -0,9 C -5,2 C 12,9 km/h (3 Bft)
27.12.2010 12:09 0,4 C 91 % 1017,5 hPa 0,0 l/m 9,5 km/h (2 Bft) W 260 0 min 0 W/m -0,9 C -2,6 C 9,5 km/h (2 Bft)
27.12.2010 12:14 0,4 C 91 % 1017,5 hPa 0,0 l/m 9,8 km/h (2 Bft) W 260 0 min 0 W/m -0,9 C -2,8 C 9,8 km/h (2 Bft)
27.12.2010 12:20 0,5 C 91 % 1017,5 hPa 0,0 l/m 10,1 km/h (2 Bft) W-SW 255 0 min 0 W/m -0,8 C -3,0 C 10,1 km/h (2 Bft)
27.12.2010 12:25 0,6 C 91 % 1017,5 hPa 0,0 l/m 10,0 km/h (2 Bft) W-SW 250 0 min 0 W/m -0,7 C -2,8 C 10,0 km/h (2 Bft)
27.12.2010 12:30 0,6 C 91 % 1017,5 hPa 0,0 l/m 9,6 km/h (2 Bft) W-SW 240 0 min 0 W/m -0,7 C -2,5 C 9,6 km/h (2 Bft)
27.12.2010 12:34 0,7 C 92 % 1016,5 hPa 0,0 l/m 8,5 km/h (2 Bft) W-SW 250 0 min 0 W/m -0,4 C -1,4 C 8,5 km/h (2 Bft)
27.12.2010 12:39 0,7 C 92 % 1016,5 hPa 0,0 l/m 6,4 km/h (2 Bft) W-SW 250 0 min 0 W/m -0,4 C 0,7 C 6,4 km/h (2 Bft)
27.12.2010 12:44 0,8 C 92 % 1016,5 hPa 0,0 l/m 7,4 km/h (2 Bft) W-SW 250 0 min 0 W/m -0,3 C -0,2 C 7,4 km/h (2 Bft)
27.12.2010 12:49 0,9 C 92 % 1016,5 hPa 0,0 l/m 7,8 km/h (2 Bft) W-SW 250 0 min 0 W/m -0,2 C -0,5 C 7,8 km/h (2 Bft)
27.12.2010 12:54 1,0 C 91 % 1016,5 hPa 0,0 l/m 7,0 km/h (2 Bft) W-SW 250 0 min 0 W/m -0,3 C 0,4 C 7,0 km/h (2 Bft)
27.12.2010 13:00 1,0 C 91 % 1017,5 hPa 0,0 l/m 8,5 km/h (2 Bft) W-SW 250 0 min 0 W/m -0,3 C -1,1 C 8,5 km/h (2 Bft)
27.12.2010 13:04 1,0 C 91 % 1017,5 hPa 0,0 l/m 11,0 km/h (2 Bft) W-SW 250 0 min 0 W/m -0,3 C -3,1 C 11,0 km/h (2 Bft)
27.12.2010 13:09 1,0 C 92 % 1017,5 hPa 0,0 l/m 10,0 km/h (2 Bft) W-SW 250 0 min 0 W/m -0,2 C -2,3 C 10,0 km/h (2 Bft)
27.12.2010 13:14 1,0 C 92 % 1017,5 hPa 0,0 l/m 13,0 km/h (3 Bft) W-SW 250 0 min 0 W/m -0,2 C -4,5 C 13,0 km/h (3 Bft)
27.12.2010 13:19 1,1 C 92 % 1016,5 hPa 0,0 l/m 14,0 km/h (3 Bft) W 260 0 min 0 W/m -0,1 C -5,0 C 14,0 km/h (3 Bft)
27.12.2010 13:25 1,1 C 92 % 1017,5 hPa 0,0 l/m 16,3 km/h (3 Bft) W-SW 250 0 min 0 W/m -0,1 C -6,4 C 16,3 km/h (3 Bft)
27.12.2010 13:30 1,1 C 92 % 1017,5 hPa 0,0 l/m 12,8 km/h (3 Bft) W-SW 250 0 min 0 W/m -0,1 C -4,3 C 12,8 km/h (3 Bft)
27.12.2010 13:34 1,1 C 92 % 1017,5 hPa 0,0 l/m 11,0 km/h (2 Bft) W 260 0 min 0 W/m -0,1 C -3,0 C 11,0 km/h (2 Bft)
27.12.2010 13:39 1,1 C 92 % 1017,5 hPa 0,0 l/m 13,3 km/h (3 Bft) W-SW 255 0 min 0 W/m -0,1 C -4,6 C 13,3 km/h (3 Bft)
27.12.2010 13:44 1,0 C 92 % 1017,5 hPa 0,0 l/m 7,3 km/h (2 Bft) W-SW 250 0 min 0 W/m -0,2 C 0,1 C 7,3 km/h (2 Bft)
27.12.2010 13:49 1,0 C 92 % 1017,5 hPa 0,0 l/m 0,0 km/h (0 Bft) W-SW 250 0 min 0 W/m -0,2 C 1,0 C 0,0 km/h (0 Bft)
27.12.2010 13:54 0,9 C 92 % 1017,5 hPa 0,0 l/m 0,0 km/h (0 Bft) W 265 0 min 0 W/m -0,2 C 0,9 C 0,0 km/h (0 Bft)
27.12.2010 14:00 0,8 C 92 % 1017,5 hPa 0,0 l/m 0,0 km/h (0 Bft) W 265 0 min 0 W/m -0,3 C 0,8 C 0,0 km/h (0 Bft)
27.12.2010 14:04 0,9 C 92 % 1017,5 hPa 0,0 l/m 0,0 km/h (0 Bft) W 270 0 min 0 W/m -0,2 C 0,9 C 0,0 km/h (0 Bft)
27.12.2010 14:09 0,8 C 92 % 1016,5 hPa 0,0 l/m 0,0 km/h (0 Bft) W-NW 285 0 min 0 W/m -0,3 C 0,8 C 0,0 km/h (0 Bft)
27.12.2010 14:14 0,8 C 92 % 1016,5 hPa 0,0 l/m 0,0 km/h (0 Bft) W-NW 285 0 min 0 W/m -0,3 C 0,8 C 0,0 km/h (0 Bft)
27.12.2010 14:19 0,7 C 93 % 1016,5 hPa 0,0 l/m 0,0 km/h (0 Bft) W 280 0 min 0 W/m -0,3 C 0,7 C 0,0 km/h (0 Bft)
27.12.2010 14:25 0,8 C 93 % 1016,5 hPa 0,0 l/m 0,0 km/h (0 Bft) W 280 0 min 0 W/m -0,2 C 0,8 C 0,0 km/h (0 Bft)
27.12.2010 14:30 0,7 C 93 % 1016,5 hPa 0,0 l/m 0,0 km/h (0 Bft) W-NW 285 0 min 0 W/m -0,3 C 0,7 C 0,0 km/h (0 Bft)
27.12.2010 14:34 0,7 C 93 % 1016,5 hPa 0,0 l/m 0,0 km/h (0 Bft) W 280 0 min 0 W/m -0,3 C 0,7 C 0,0 km/h (0 Bft)
27.12.2010 14:39 0,7 C 94 % 1016,5 hPa 0,0 l/m 0,0 km/h (0 Bft) W-NW 285 0 min 0 W/m -0,2 C 0,7 C 0,0 km/h (0 Bft)
27.12.2010 14:44 0,8 C 94 % 1016,5 hPa 0,0 l/m 0,0 km/h (0 Bft) W-NW 295 0 min 0 W/m -0,1 C 0,8 C 0,0 km/h (0 Bft)
27.12.2010 14:49 0,9 C 94 % 1016,5 hPa 0,0 l/m 0,0 km/h (0 Bft) W-NW 290 0 min 0 W/m 0,0 C 0,9 C 0,0 km/h (0 Bft)
27.12.2010 14:54 0,8 C 94 % 1016,5 hPa 0,0 l/m 0,0 km/h (0 Bft) W-NW 290 0 min 0 W/m -0,1 C 0,8 C 0,0 km/h (0 Bft)
27.12.2010 15:00 0,8 C 94 % 1016,5 hPa 0,0 l/m 0,0 km/h (0 Bft) W 270 0 min 0 W/m -0,1 C 0,8 C 0,0 km/h (0 Bft)
27.12.2010 15:04 0,8 C 94 % 1016,5 hPa 0,0 l/m 0,0 km/h (0 Bft) W-SW 250 0 min 0 W/m -0,1 C 0,8 C 0,0 km/h (0 Bft)
27.12.2010 15:09 0,7 C 94 % 1016,5 hPa 0,0 l/m 0,0 km/h (0 Bft) W 265 0 min 0 W/m -0,2 C 0,7 C 0,0 km/h (0 Bft)
27.12.2010 15:14 0,7 C 94 % 1016,5 hPa 0,0 l/m 0,0 km/h (0 Bft) W 260 0 min 0 W/m -0,2 C 0,7 C 0,0 km/h (0 Bft)
27.12.2010 15:20 0,7 C 94 % 1016,5 hPa 0,0 l/m 0,0 km/h (0 Bft) W 265 0 min 0 W/m -0,2 C 0,7 C 0,0 km/h (0 Bft)
27.12.2010 15:25 0,7 C 94 % 1016,5 hPa 0,0 l/m 0,0 km/h (0 Bft) W 260 0 min 0 W/m -0,2 C 0,7 C 0,0 km/h (0 Bft)
27.12.2010 15:29 0,7 C 94 % 1016,5 hPa 0,0 l/m 0,0 km/h (0 Bft) W 270 0 min 0 W/m -0,2 C 0,7 C 0,0 km/h (0 Bft)
27.12.2010 15:34 0,8 C 94 % 1016,5 hPa 0,0 l/m 0,0 km/h (0 Bft) W 260 0 min 0 W/m -0,1 C 0,8 C 0,0 km/h (0 Bft)
27.12.2010 15:39 0,8 C 94 % 1016,5 hPa 0,0 l/m 0,0 km/h (0 Bft) W-SW 255 0 min 0 W/m -0,1 C 0,8 C 0,0 km/h (0 Bft)
27.12.2010 15:44 0,9 C 94 % 1016,5 hPa 0,0 l/m 0,0 km/h (0 Bft) W 270 0 min 0 W/m 0,0 C 0,9 C 0,0 km/h (0 Bft)
27.12.2010 15:49 1,0 C 94 % 1016,5 hPa 0,0 l/m 0,0 km/h (0 Bft) W-NW 290 0 min 0 W/m 0,1 C 1,0 C 0,0 km/h (0 Bft)
27.12.2010 15:55 1,0 C 95 % 1016,5 hPa 0,0 l/m 0,0 km/h (0 Bft) W 280 0 min 0 W/m 0,3 C 1,0 C 0,0 km/h (0 Bft)
27.12.2010 16:00 1,1 C 95 % 1016,5 hPa 0,0 l/m 0,0 km/h (0 Bft) W 280 0 min 0 W/m 0,4 C 1,1 C 0,0 km/h (0 Bft)
27.12.2010 16:04 1,0 C 95 % 1016,5 hPa 0,0 l/m 0,0 km/h (0 Bft) W-NW 285 0 min 0 W/m 0,3 C 1,0 C 0,0 km/h (0 Bft)
27.12.2010 16:09 1,0 C 95 % 1016,5 hPa 0,0 l/m 20,8 km/h (4 Bft) W-NW 290 0 min 0 W/m 0,3 C -8,7 C 20,8 km/h (4 Bft)
27.12.2010 16:15 1,0 C 95 % 1016,5 hPa 0,0 l/m 24,3 km/h (4 Bft) W-NW 285 0 min 0 W/m 0,3 C -10,1 C 24,3 km/h (4 Bft)
27.12.2010 16:20 1,0 C 95 % 1016,5 hPa 0,0 l/m 20,8 km/h (4 Bft) W-NW 295 0 min 0 W/m 0,3 C -8,7 C 20,8 km/h (4 Bft)
27.12.2010 16:24 1,1 C 95 % 1016,5 hPa 0,0 l/m 20,0 km/h (4 Bft) W-NW 295 0 min 0 W/m 0,4 C -8,2 C 20,0 km/h (4 Bft)
27.12.2010 16:29 1,1 C 95 % 1016,5 hPa 0,0 l/m 19,3 km/h (3 Bft) W 280 0 min 0 W/m 0,4 C -7,9 C 19,3 km/h (3 Bft)
27.12.2010 16:34 1,1 C 95 % 1016,5 hPa 0,0 l/m 19,4 km/h (3 Bft) W-NW 285 0 min 0 W/m 0,4 C -7,9 C 19,4 km/h (3 Bft)
27.12.2010 16:39 1,1 C 95 % 1016,5 hPa 0,0 l/m 19,2 km/h (3 Bft) W 280 0 min 0 W/m 0,4 C -7,8 C 19,2 km/h (3 Bft)
27.12.2010 16:44 1,1 C 95 % 1016,5 hPa 0,0 l/m 15,4 km/h (3 Bft) W 270 0 min 0 W/m 0,4 C -5,9 C 15,4 km/h (3 Bft)
27.12.2010 16:50 1,1 C 95 % 1016,5 hPa 0,0 l/m 15,6 km/h (3 Bft) W 280 0 min 0 W/m 0,4 C -6,0 C 15,6 km/h (3 Bft)
27.12.2010 16:55 1,1 C 95 % 1016,5 hPa 0,0 l/m 15,1 km/h (3 Bft) W 275 0 min 0 W/m 0,4 C -5,7 C 15,1 km/h (3 Bft)
27.12.2010 16:59 1,1 C 95 % 1016,5 hPa 0,0 l/m 16,0 km/h (3 Bft) W 275 0 min 0 W/m 0,4 C -6,2 C 16,0 km/h (3 Bft)
27.12.2010 17:04 1,1 C 95 % 1016,5 hPa 0,0 l/m 15,5 km/h (3 Bft) W 265 0 min 0 W/m 0,4 C -5,9 C 15,5 km/h (3 Bft)
27.12.2010 17:10 1,1 C 95 % 1016,5 hPa 0,0 l/m 13,1 km/h (3 Bft) W-NW 290 0 min 0 W/m 0,4 C -4,5 C 13,1 km/h (3 Bft)
27.12.2010 17:15 1,0 C 95 % 1016,5 hPa 0,0 l/m 17,0 km/h (3 Bft) W 275 0 min 0 W/m 0,3 C -6,9 C 17,0 km/h (3 Bft)
27.12.2010 17:19 1,0 C 94 % 1016,5 hPa 0,0 l/m 11,2 km/h (2 Bft) W 280 0 min 0 W/m 0,1 C -3,3 C 11,2 km/h (2 Bft)
27.12.2010 17:24 1,0 C 94 % 1016,5 hPa 0,0 l/m 15,5 km/h (3 Bft) W 275 0 min 0 W/m 0,1 C -6,1 C 15,5 km/h (3 Bft)
27.12.2010 17:29 1,0 C 94 % 1016,5 hPa 0,0 l/m 16,8 km/h (3 Bft) W 275 0 min 0 W/m 0,1 C -6,8 C 16,8 km/h (3 Bft)
27.12.2010 17:34 1,0 C 94 % 1016,5 hPa 0,0 l/m 13,3 km/h (3 Bft) W 280 0 min 0 W/m 0,1 C -4,7 C 13,3 km/h (3 Bft)
27.12.2010 17:39 0,9 C 94 % 1016,5 hPa 0,0 l/m 17,1 km/h (3 Bft) W-NW 285 0 min 0 W/m 0,0 C -7,1 C 17,1 km/h (3 Bft)
27.12.2010 17:45 1,1 C 95 % 1016,5 hPa 0,0 l/m 16,0 km/h (3 Bft) W-NW 285 0 min 0 W/m 0,4 C -6,2 C 16,0 km/h (3 Bft)
27.12.2010 17:50 1,0 C 94 % 1016,5 hPa 0,0 l/m 21,5 km/h (4 Bft) W-NW 295 0 min 0 W/m 0,1 C -9,0 C 21,5 km/h (4 Bft)
27.12.2010 17:54 0,9 C 94 % 1016,5 hPa 0,0 l/m 21,2 km/h (4 Bft) W-NW 290 0 min 0 W/m 0,0 C -9,0 C 21,2 km/h (4 Bft)
27.12.2010 17:59 1,1 C 95 % 1016,5 hPa 0,0 l/m 22,4 km/h (4 Bft) W 280 0 min 0 W/m 0,4 C -9,2 C 22,4 km/h (4 Bft)
27.12.2010 18:05 1,1 C 95 % 1016,5 hPa 0,0 l/m 20,3 km/h (4 Bft) W-NW 295 0 min 0 W/m 0,4 C -8,3 C 20,3 km/h (4 Bft)
27.12.2010 18:10 1,1 C 94 % 1016,5 hPa 0,0 l/m 24,8 km/h (4 Bft) NW 305 0 min 0 W/m 0,2 C -10,2 C 24,8 km/h (4 Bft)
27.12.2010 18:14 1,0 C 94 % 1016,5 hPa 0,0 l/m 17,6 km/h (3 Bft) W-NW 295 0 min 0 W/m 0,1 C -7,2 C 17,6 km/h (3 Bft)
27.12.2010 18:19 1,0 C 94 % 1016,5 hPa 0,0 l/m 20,3 km/h (4 Bft) W-NW 300 0 min 0 W/m 0,1 C -8,5 C 20,3 km/h (4 Bft)
27.12.2010 18:24 0,9 C 94 % 1016,5 hPa 0,0 l/m 18,9 km/h (3 Bft) W-NW 290 0 min 0 W/m 0,0 C -8,0 C 18,9 km/h (3 Bft)
27.12.2010 18:29 0,9 C 94 % 1016,5 hPa 0,0 l/m 17,1 km/h (3 Bft) NW 305 0 min 0 W/m 0,0 C -7,1 C 17,1 km/h (3 Bft)
27.12.2010 18:34 0,9 C 94 % 1017,5 hPa 0,0 l/m 13,6 km/h (3 Bft) W-NW 285 0 min 0 W/m 0,0 C -5,0 C 13,6 km/h (3 Bft)
27.12.2010 18:40 0,9 C 94 % 1017,5 hPa 0,0 l/m 14,1 km/h (3 Bft) W-NW 300 0 min 0 W/m 0,0 C -5,3 C 14,1 km/h (3 Bft)
27.12.2010 18:45 0,9 C 94 % 1017,5 hPa 0,0 l/m 10,9 km/h (2 Bft) W 275 0 min 0 W/m 0,0 C -3,2 C 10,9 km/h (2 Bft)
27.12.2010 18:49 1,0 C 94 % 1017,5 hPa 0,0 l/m 15,0 km/h (3 Bft) W-NW 285 0 min 0 W/m 0,1 C -5,8 C 15,0 km/h (3 Bft)
27.12.2010 18:54 0,9 C 94 % 1017,5 hPa 0,0 l/m 11,6 km/h (2 Bft) W-NW 300 0 min 0 W/m 0,0 C -3,7 C 11,6 km/h (2 Bft)
27.12.2010 18:59 0,9 C 94 % 1017,5 hPa 0,0 l/m 8,9 km/h (2 Bft) W-NW 290 0 min 0 W/m 0,0 C -1,5 C 8,9 km/h (2 Bft)
27.12.2010 19:05 1,0 C 94 % 1017,5 hPa 0,0 l/m 5,0 km/h (1 Bft) NW 305 0 min 0 W/m 0,1 C 1,0 C 5,0 km/h (1 Bft)
27.12.2010 19:09 0,9 C 94 % 1017,5 hPa 0,0 l/m 6,5 km/h (2 Bft) W-NW 300 0 min 0 W/m 0,0 C 0,8 C 6,5 km/h (2 Bft)
27.12.2010 19:14 0,9 C 94 % 1017,5 hPa 0,0 l/m 12,1 km/h (2 Bft) NW 320 0 min 0 W/m 0,0 C -4,0 C 12,1 km/h (2 Bft)
27.12.2010 19:19 0,9 C 94 % 1017,5 hPa 0,0 l/m 7,8 km/h (2 Bft) NW 310 0 min 0 W/m 0,0 C -0,5 C 7,8 km/h (2 Bft)
27.12.2010 19:24 0,9 C 94 % 1017,5 hPa 0,0 l/m 5,8 km/h (2 Bft) NW 315 0 min 0 W/m 0,0 C 0,9 C 5,8 km/h (2 Bft)
27.12.2010 19:30 0,9 C 94 % 1017,5 hPa 0,0 l/m 5,8 km/h (2 Bft) NW 315 0 min 0 W/m 0,0 C 0,9 C 5,8 km/h (2 Bft)
27.12.2010 19:35 1,0 C 94 % 1017,5 hPa 0,0 l/m 5,9 km/h (2 Bft) NW 310 0 min 0 W/m 0,1 C 1,0 C 5,9 km/h (2 Bft)
27.12.2010 19:40 1,1 C 94 % 1017,5 hPa 0,0 l/m 1,1 km/h (1 Bft) NW 310 0 min 0 W/m 0,2 C 1,1 C 1,1 km/h (1 Bft)
27.12.2010 19:44 1,1 C 94 % 1017,5 hPa 0,0 l/m 6,3 km/h (2 Bft) NW 315 0 min 0 W/m 0,2 C 1,1 C 6,3 km/h (2 Bft)
27.12.2010 19:49 1,1 C 94 % 1017,5 hPa 0,0 l/m 0,0 km/h (0 Bft) NW 315 0 min 0 W/m 0,2 C 1,1 C 0,0 km/h (0 Bft)
27.12.2010 19:54 1,2 C 94 % 1017,5 hPa 0,0 l/m 0,0 km/h (0 Bft) NW 315 0 min 0 W/m 0,3 C 1,2 C 0,0 km/h (0 Bft)
27.12.2010 19:59 1,1 C 94 % 1017,5 hPa 0,0 l/m 0,0 km/h (0 Bft) NW 315 0 min 0 W/m 0,2 C 1,1 C 0,0 km/h (0 Bft)
27.12.2010 20:04 0,7 C 93 % 1017,5 hPa 0,0 l/m 0,0 km/h (0 Bft) O 95 0 min 0 W/m -0,3 C 0,7 C 0,0 km/h (0 Bft)
27.12.2010 20:09 0,6 C 93 % 1017,5 hPa 0,0 l/m 0,0 km/h (0 Bft) O 90 0 min 0 W/m -0,4 C 0,6 C 0,0 km/h (0 Bft)
27.12.2010 20:14 0,3 C 92 % 1017,5 hPa 0,0 l/m 0,0 km/h (0 Bft) O 90 0 min 0 W/m -0,8 C 0,3 C 0,0 km/h (0 Bft)
27.12.2010 20:19 0,1 C 92 % 1017,5 hPa 0,0 l/m 0,0 km/h (0 Bft) NO 45 0 min 0 W/m -1,0 C 0,1 C 0,0 km/h (0 Bft)
27.12.2010 20:25 -0,2 C 92 % 1017,5 hPa 0,0 l/m 0,0 km/h (0 Bft) O-SO 105 0 min 0 W/m -1,3 C -0,2 C 0,0 km/h (0 Bft)
27.12.2010 20:30 -0,2 C 92 % 1017,5 hPa 0,0 l/m 0,0 km/h (0 Bft) SO 125 0 min 0 W/m -1,3 C -0,2 C 0,0 km/h (0 Bft)
27.12.2010 20:34 -0,3 C 92 % 1018,5 hPa 0,0 l/m 0,0 km/h (0 Bft) O-SO 105 0 min 0 W/m -1,4 C -0,3 C 0,0 km/h (0 Bft)
27.12.2010 20:39 -0,3 C 92 % 1018,5 hPa 0,0 l/m 0,0 km/h (0 Bft) O 95 0 min 0 W/m -1,4 C -0,3 C 0,0 km/h (0 Bft)
27.12.2010 20:44 -0,4 C 92 % 1018,5 hPa 0,0 l/m 0,0 km/h (0 Bft) O 85 0 min 0 W/m -1,5 C -0,4 C 0,0 km/h (0 Bft)
27.12.2010 20:49 -0,4 C 92 % 1018,5 hPa 0,0 l/m 0,0 km/h (0 Bft) O-SO 110 0 min 0 W/m -1,5 C -0,4 C 0,0 km/h (0 Bft)
27.12.2010 20:55 -0,3 C 92 % 1018,5 hPa 0,0 l/m 0,0 km/h (0 Bft) O-SO 110 0 min 0 W/m -1,4 C -0,3 C 0,0 km/h (0 Bft)
27.12.2010 21:00 -0,4 C 91 % 1018,5 hPa 0,0 l/m 0,0 km/h (0 Bft) O 95 0 min 0 W/m -1,7 C -0,4 C 0,0 km/h (0 Bft)
27.12.2010 21:04 -0,5 C 91 % 1018,5 hPa 0,0 l/m 0,0 km/h (0 Bft) O-SO 115 0 min 0 W/m -1,8 C -0,5 C 0,0 km/h (0 Bft)
27.12.2010 21:09 -0,6 C 91 % 1018,5 hPa 0,0 l/m 0,0 km/h (0 Bft) O-SO 115 0 min 0 W/m -1,9 C -0,6 C 0,0 km/h (0 Bft)
27.12.2010 21:15 -0,6 C 91 % 1018,5 hPa 0,0 l/m 0,0 km/h (0 Bft) O-SO 105 0 min 0 W/m -1,9 C -0,6 C 0,0 km/h (0 Bft)
27.12.2010 21:20 -0,6 C 91 % 1018,5 hPa 0,0 l/m 0,0 km/h (0 Bft) O-SO 105 0 min 0 W/m -1,9 C -0,6 C 0,0 km/h (0 Bft)
27.12.2010 21:24 -0,6 C 91 % 1018,5 hPa 0,0 l/m 0,0 km/h (0 Bft) O 100 0 min 0 W/m -1,9 C -0,6 C 0,0 km/h (0 Bft)
27.12.2010 21:29 -0,7 C 91 % 1018,5 hPa 0,0 l/m 0,0 km/h (0 Bft) O 100 0 min 0 W/m -2,0 C -0,7 C 0,0 km/h (0 Bft)
27.12.2010 21:34 -0,7 C 91 % 1018,5 hPa 0,0 l/m 0,0 km/h (0 Bft) O 100 0 min 0 W/m -2,0 C -0,7 C 0,0 km/h (0 Bft)
27.12.2010 21:39 -0,8 C 90 % 1018,5 hPa 0,0 l/m 0,0 km/h (0 Bft) O-SO 105 0 min 0 W/m -2,2 C -0,8 C 0,0 km/h (0 Bft)
27.12.2010 21:45 -0,9 C 90 % 1018,5 hPa 0,0 l/m 0,0 km/h (0 Bft) O-NO 75 0 min 0 W/m -2,3 C -0,9 C 0,0 km/h (0 Bft)
27.12.2010 21:50 -0,9 C 90 % 1018,5 hPa 0,0 l/m 0,0 km/h (0 Bft) O 90 0 min 0 W/m -2,3 C -0,9 C 0,0 km/h (0 Bft)
27.12.2010 21:54 -0,9 C 90 % 1018,5 hPa 0,0 l/m 0,0 km/h (0 Bft) O-SO 105 0 min 0 W/m -2,3 C -0,9 C 0,0 km/h (0 Bft)
27.12.2010 21:59 -0,9 C 90 % 1018,5 hPa 0,0 l/m 0,0 km/h (0 Bft) O-SO 115 0 min 0 W/m -2,3 C -0,9 C 0,0 km/h (0 Bft)
27.12.2010 22:05 -1,0 C 90 % 1018,5 hPa 0,0 l/m 0,0 km/h (0 Bft) O-SO 110 0 min 0 W/m -2,4 C -1,0 C 0,0 km/h (0 Bft)
27.12.2010 22:10 -1,0 C 90 % 1018,5 hPa 0,0 l/m 0,0 km/h (0 Bft) O-SO 110 0 min 0 W/m -2,4 C -1,0 C 0,0 km/h (0 Bft)
27.12.2010 22:14 -1,1 C 90 % 1018,5 hPa 0,0 l/m 0,0 km/h (0 Bft) O-SO 110 0 min 0 W/m -2,5 C -1,1 C 0,0 km/h (0 Bft)
27.12.2010 22:19 -1,1 C 90 % 1018,5 hPa 0,0 l/m 0,0 km/h (0 Bft) SO 125 0 min 0 W/m -2,5 C -1,1 C 0,0 km/h (0 Bft)
27.12.2010 22:24 -1,1 C 90 % 1018,5 hPa 0,0 l/m 0,0 km/h (0 Bft) O-SO 120 0 min 0 W/m -2,5 C -1,1 C 0,0 km/h (0 Bft)
27.12.2010 22:29 -1,2 C 89 % 1018,5 hPa 0,0 l/m 0,0 km/h (0 Bft) O-SO 115 0 min 0 W/m -2,8 C -1,2 C 0,0 km/h (0 Bft)
27.12.2010 22:35 -1,2 C 89 % 1018,5 hPa 0,0 l/m 0,0 km/h (0 Bft) O 90 0 min 0 W/m -2,8 C -1,2 C 0,0 km/h (0 Bft)
27.12.2010 22:40 -1,1 C 89 % 1018,5 hPa 0,0 l/m 0,0 km/h (0 Bft) O 90 0 min 0 W/m -2,7 C -1,1 C 0,0 km/h (0 Bft)
27.12.2010 22:44 -1,2 C 89 % 1018,5 hPa 0,0 l/m 0,0 km/h (0 Bft) SO 125 0 min 0 W/m -2,8 C -1,2 C 0,0 km/h (0 Bft)
27.12.2010 22:49 -1,2 C 89 % 1018,5 hPa 0,0 l/m 0,0 km/h (0 Bft) SO 125 0 min 0 W/m -2,8 C -1,2 C 0,0 km/h (0 Bft)
27.12.2010 22:54 -1,3 C 89 % 1018,5 hPa 0,0 l/m 0,0 km/h (0 Bft) O-SO 115 0 min 0 W/m -2,9 C -1,3 C 0,0 km/h (0 Bft)
27.12.2010 22:59 -1,3 C 89 % 1018,5 hPa 0,0 l/m 0,0 km/h (0 Bft) O-SO 115 0 min 0 W/m -2,9 C -1,3 C 0,0 km/h (0 Bft)
27.12.2010 23:04 -1,3 C 89 % 1018,5 hPa 0,0 l/m 0,0 km/h (0 Bft) SO 130 0 min 0 W/m -2,9 C -1,3 C 0,0 km/h (0 Bft)
27.12.2010 23:09 -1,3 C 89 % 1018,5 hPa 0,0 l/m 0,0 km/h (0 Bft) O-SO 120 0 min 0 W/m -2,9 C -1,3 C 0,0 km/h (0 Bft)
27.12.2010 23:14 -1,4 C 89 % 1018,5 hPa 0,0 l/m 0,0 km/h (0 Bft) O-SO 110 0 min 0 W/m -3,0 C -1,4 C 0,0 km/h (0 Bft)
27.12.2010 23:19 -1,3 C 89 % 1018,5 hPa 0,0 l/m 0,0 km/h (0 Bft) SO 135 0 min 0 W/m -2,9 C -1,3 C 0,0 km/h (0 Bft)
27.12.2010 23:25 -1,2 C 89 % 1018,5 hPa 0,0 l/m 0,0 km/h (0 Bft) SO 140 0 min 0 W/m -2,8 C -1,2 C 0,0 km/h (0 Bft)
27.12.2010 23:30 -1,2 C 89 % 1018,5 hPa 0,0 l/m 0,0 km/h (0 Bft) SO 130 0 min 0 W/m -2,8 C -1,2 C 0,0 km/h (0 Bft)
27.12.2010 23:34 -1,2 C 89 % 1019,5 hPa 0,0 l/m 0,0 km/h (0 Bft) S-SO 150 0 min 0 W/m -2,8 C -1,2 C 0,0 km/h (0 Bft)
27.12.2010 23:39 -1,2 C 89 % 1019,5 hPa 0,0 l/m 0,0 km/h (0 Bft) SO 140 0 min 0 W/m -2,8 C -1,2 C 0,0 km/h (0 Bft)
27.12.2010 23:44 -1,2 C 89 % 1019,5 hPa 0,0 l/m 0,0 km/h (0 Bft) SO 145 0 min 0 W/m -2,8 C -1,2 C 0,0 km/h (0 Bft)
27.12.2010 23:49 -1,2 C 89 % 1019,5 hPa 0,0 l/m 0,0 km/h (0 Bft) S-SO 155 0 min 0 W/m -2,8 C -1,2 C 0,0 km/h (0 Bft)
27.12.2010 23:55 -1,2 C 89 % 1019,5 hPa 0,0 l/m 0,0 km/h (0 Bft) SO 145 0 min 0 W/m -2,8 C -1,2 C 0,0 km/h (0 Bft)
_ Min-Zeit 00:14 00:04 12:34 - 00:00 - - - - 00:14 18:10 00:00
Minimum _ -4,2 C 84 % 1016,5 hPa - 0,0 km/h (0 Bft) - - - - -6,5 C -10,2 C 0,0 km/h (0 Bft)
_ Max-Zeit 19:54 15:55 00:00 00:00 18:10 - - 00:00 00:00 16:00 19:54 18:10
Maximum _ 1,2 C 95 % 1019,5 hPa 0,0 l/m 24,8 km/h
NW (4 Bft)
- - 0 min 0 W/m 0,4 C 1,2 C 24,8 km/h
NW (4 Bft)
Durchschnitt _ -0,9 C 90 % 1017,7 hPa #0,0 l/m 6,1 km/h (2 Bft) W-SW - #0 min. 0 W/m -2,3 C -2,9 C 6,1 km/h (2 Bft)
copyright by Holger Just